createdAt,value
2023-03-29T00:01:43.573Z,101204.13
2023-03-29T00:04:47.272Z,101202.44
2023-03-29T00:07:54.522Z,101197.56
2023-03-29T00:10:59.556Z,101193.50
2023-03-29T00:14:02.824Z,101201.41
2023-03-29T00:17:06.700Z,101198.94
2023-03-29T00:20:10.491Z,101194.00
2023-03-29T00:23:13.542Z,101193.22
2023-03-29T00:26:16.605Z,101184.22
2023-03-29T00:29:19.870Z,101188.03
2023-03-29T00:32:22.802Z,101191.00
2023-03-29T00:35:25.959Z,101183.13
2023-03-29T00:38:28.869Z,101175.22
2023-03-29T00:41:32.011Z,101174.41
2023-03-29T00:44:59.742Z,101171.66
2023-03-29T00:48:07.283Z,101182.34
2023-03-29T00:51:14.534Z,101173.41
2023-03-29T00:54:18.917Z,101176.69
2023-03-29T00:57:26.483Z,101175.28
2023-03-29T01:00:37.582Z,101187.25
2023-03-29T01:03:46.716Z,101185.59
2023-03-29T01:07:01.183Z,101180.41
2023-03-29T01:10:19.707Z,101181.22
2023-03-29T01:13:39.516Z,101174.66
2023-03-29T01:16:42.779Z,101174.16
2023-03-29T01:19:51.093Z,101172.00
2023-03-29T01:23:03.082Z,101177.72
2023-03-29T01:26:40.408Z,101184.44
2023-03-29T01:29:50.278Z,101182.00
2023-03-29T01:33:14.624Z,101176.59
2023-03-29T01:36:37.865Z,101170.88
2023-03-29T01:39:40.960Z,101162.13
2023-03-29T01:43:19.412Z,101164.88
2023-03-29T01:46:46.045Z,101154.56
2023-03-29T01:50:02.019Z,101149.63
2023-03-29T01:53:25.703Z,101163.66
2023-03-29T01:56:30.196Z,101150.56
2023-03-29T01:59:36.228Z,101149.47
2023-03-29T02:02:43.503Z,101160.97
2023-03-29T02:05:47.051Z,101150.66
2023-03-29T02:08:51.697Z,101144.09
2023-03-29T02:11:59.051Z,101150.59
2023-03-29T02:15:02.318Z,101147.66
2023-03-29T02:18:06.894Z,101149.59
2023-03-29T02:21:21.636Z,101154.75
2023-03-29T02:24:26.416Z,101158.28
2023-03-29T02:27:30.259Z,101150.69
2023-03-29T02:30:57.944Z,101152.91
2023-03-29T02:34:09.031Z,101150.66
2023-03-29T02:37:18.170Z,101143.53
2023-03-29T02:40:24.009Z,101147.38
2023-03-29T02:43:29.256Z,101145.09
2023-03-29T02:46:32.828Z,101141.66
2023-03-29T02:49:35.687Z,101152.47
2023-03-29T02:52:43.506Z,101142.34
2023-03-29T02:55:47.164Z,101142.34
2023-03-29T02:58:50.773Z,101147.88
2023-03-29T03:01:54.042Z,101144.63
2023-03-29T03:04:58.049Z,101150.34
2023-03-29T03:08:01.289Z,101153.88
2023-03-29T03:11:06.154Z,101149.00
2023-03-29T03:14:09.660Z,101159.13
2023-03-29T03:17:12.853Z,101158.31
2023-03-29T03:20:15.776Z,101154.19
2023-03-29T03:23:19.376Z,101148.16
2023-03-29T03:26:25.162Z,101148.34
2023-03-29T03:29:29.162Z,101143.97
2023-03-29T03:32:36.985Z,101152.16
2023-03-29T03:35:42.857Z,101147.94
2023-03-29T03:38:46.346Z,101144.38
2023-03-29T03:41:49.449Z,101147.06
2023-03-29T03:44:52.353Z,101143.22
2023-03-29T03:47:56.907Z,101145.72
2023-03-29T03:51:00.503Z,101154.44
2023-03-29T03:54:05.830Z,101153.94
2023-03-29T03:57:11.847Z,101161.56
2023-03-29T04:00:21.650Z,101165.13
2023-03-29T04:03:25.572Z,101163.91
2023-03-29T04:06:30.819Z,101166.47
2023-03-29T04:09:37.817Z,101175.72
2023-03-29T04:12:42.175Z,101180.09
2023-03-29T04:15:46.303Z,101178.44
2023-03-29T04:18:50.482Z,101175.09
2023-03-29T04:21:53.864Z,101172.19
2023-03-29T04:24:57.570Z,101182.28
2023-03-29T04:28:03.016Z,101184.47
2023-03-29T04:31:12.673Z,101179.03
2023-03-29T04:37:22.374Z,101183.16
2023-03-29T04:40:25.704Z,101185.56
2023-03-29T04:43:30.867Z,101183.91
2023-03-29T04:46:35.033Z,101178.50
2023-03-29T04:49:40.118Z,101186.69
2023-03-29T04:52:45.763Z,101194.03
2023-03-29T04:55:48.888Z,101181.78
2023-03-29T04:58:52.420Z,101181.81
2023-03-29T05:01:57.396Z,101185.06
2023-03-29T05:05:00.800Z,101185.91
2023-03-29T05:08:05.004Z,101181.28
2023-03-29T05:11:11.103Z,101181.84
2023-03-29T05:14:14.021Z,101186.75
2023-03-29T05:17:17.306Z,101176.94
2023-03-29T05:20:20.310Z,101190.28
2023-03-29T05:23:24.038Z,101178.28
2023-03-29T05:26:29.912Z,101179.37
2023-03-29T05:29:33.322Z,101191.09
2023-03-29T05:32:40.759Z,101177.75
2023-03-29T05:35:44.429Z,101194.91
2023-03-29T05:38:47.463Z,101201.69
2023-03-29T05:41:50.889Z,101198.16
2023-03-29T05:44:54.897Z,101203.59
2023-03-29T05:47:58.912Z,101195.97
2023-03-29T05:51:03.775Z,101203.59
2023-03-29T05:54:07.251Z,101189.91
2023-03-29T05:57:10.165Z,101190.97
2023-03-29T06:00:22.658Z,101185.91
2023-03-29T06:03:27.799Z,101182.44
2023-03-29T06:06:32.046Z,101184.44
2023-03-29T06:09:35.430Z,101177.41
2023-03-29T06:12:39.085Z,101192.59
2023-03-29T06:15:42.262Z,101179.63
2023-03-29T06:18:45.492Z,101180.41
2023-03-29T06:21:48.841Z,101177.34
2023-03-29T06:24:52.938Z,101177.00
2023-03-29T06:27:57.761Z,101177.47
2023-03-29T06:31:03.632Z,101185.84
2023-03-29T06:34:09.099Z,101195.00
2023-03-29T06:37:14.228Z,101205.66
2023-03-29T06:40:25.035Z,101205.81
2023-03-29T06:43:28.111Z,101205.25
2023-03-29T06:46:38.040Z,101213.47
2023-03-29T06:49:41.533Z,101215.16
2023-03-29T06:52:46.349Z,101206.94
2023-03-29T06:55:52.316Z,101209.81
2023-03-29T06:58:56.983Z,101211.34
2023-03-29T07:02:01.181Z,101221.50
2023-03-29T07:05:11.584Z,101201.56
2023-03-29T07:08:16.703Z,101199.66
2023-03-29T07:11:20.920Z,101209.13
2023-03-29T07:14:28.893Z,101215.03
2023-03-29T07:17:32.551Z,101212.31
2023-03-29T07:20:38.807Z,101218.38
2023-03-29T07:23:42.298Z,101222.94
2023-03-29T07:27:00.205Z,101220.16
2023-03-29T07:30:11.710Z,101229.19
2023-03-29T07:33:15.037Z,101233.22
2023-03-29T07:36:19.927Z,101238.09
2023-03-29T07:39:23.244Z,101233.44
2023-03-29T07:42:30.504Z,101231.13
2023-03-29T07:45:34.022Z,101231.53
2023-03-29T07:48:37.474Z,101231.91
2023-03-29T07:51:40.393Z,101236.19
2023-03-29T07:54:43.940Z,101222.81
2023-03-29T07:57:47.120Z,101221.66
2023-03-29T08:00:50.987Z,101228.25
2023-03-29T08:03:55.403Z,101216.03
2023-03-29T08:06:59.998Z,101212.84
2023-03-29T08:10:04.258Z,101207.59
2023-03-29T08:13:09.585Z,101207.72
2023-03-29T08:16:13.215Z,101192.13
2023-03-29T08:19:16.861Z,101191.41
2023-03-29T08:22:22.213Z,101194.59
2023-03-29T08:25:33.734Z,101192.72
2023-03-29T08:28:36.873Z,101197.09
2023-03-29T08:31:40.466Z,101185.50
2023-03-29T08:34:44.150Z,101186.78
2023-03-29T08:37:47.690Z,101190.78
2023-03-29T08:40:50.955Z,101182.09
2023-03-29T08:44:16.929Z,101185.09
2023-03-29T08:47:30.084Z,101180.03
2023-03-29T08:50:39.498Z,101176.16
2023-03-29T08:53:47.195Z,101182.41
2023-03-29T08:56:52.387Z,101176.59
2023-03-29T08:59:58.663Z,101171.69
2023-03-29T09:03:03.085Z,101180.00
2023-03-29T09:06:09.204Z,101176.84
2023-03-29T09:09:17.794Z,101175.53
2023-03-29T09:12:44.572Z,101161.12
2023-03-29T09:16:06.025Z,101156.97
2023-03-29T09:19:25.968Z,101154.31
2023-03-29T09:22:46.877Z,101147.34
2023-03-29T09:25:59.141Z,101144.50
2023-03-29T09:29:23.971Z,101142.37
2023-03-29T09:32:44.361Z,101136.25
2023-03-29T09:35:55.537Z,101148.84
2023-03-29T09:38:59.914Z,101134.16
2023-03-29T09:42:09.402Z,101140.88
2023-03-29T09:45:13.473Z,101135.97
2023-03-29T09:48:19.562Z,101131.72
2023-03-29T09:51:28.486Z,101132.31
2023-03-29T09:54:32.776Z,101130.78
2023-03-29T09:57:40.976Z,101127.12
2023-03-29T10:00:45.579Z,101126.69
2023-03-29T10:03:53.602Z,101114.56
2023-03-29T10:07:00.366Z,101103.38
2023-03-29T10:10:08.437Z,101095.41
2023-03-29T10:13:19.194Z,101102.16
2023-03-29T10:16:24.924Z,101099.31
2023-03-29T10:19:35.112Z,101090.44
2023-03-29T10:22:40.660Z,101083.56
2023-03-29T10:25:43.527Z,101080.34
2023-03-29T10:28:46.816Z,101084.59
2023-03-29T10:31:50.568Z,101078.34
2023-03-29T10:34:54.924Z,101083.91
2023-03-29T10:37:59.623Z,101081.56
2023-03-29T10:41:11.883Z,101077.63
2023-03-29T10:44:29.337Z,101078.81
2023-03-29T10:47:34.604Z,101073.47
2023-03-29T10:50:38.437Z,101067.37
2023-03-29T10:53:42.838Z,101070.34
2023-03-29T10:56:58.266Z,101058.09
2023-03-29T11:00:27.376Z,101062.38
2023-03-29T11:03:40.685Z,101044.09
2023-03-29T11:06:56.528Z,101044.66
2023-03-29T11:10:28.641Z,101033.00
2023-03-29T11:14:23.672Z,101034.94
2023-03-29T11:17:32.820Z,101033.34
2023-03-29T11:20:44.943Z,101026.94
2023-03-29T11:24:13.164Z,101028.56
2023-03-29T11:27:30.295Z,101018.91
2023-03-29T11:30:48.662Z,101023.81
2023-03-29T11:34:15.791Z,101013.97
2023-03-29T11:37:50.046Z,101003.37
2023-03-29T11:41:11.178Z,100993.47
2023-03-29T11:44:19.881Z,100979.13
2023-03-29T11:47:27.658Z,100984.50
2023-03-29T11:50:45.179Z,100980.75
2023-03-29T11:53:58.610Z,100975.44
2023-03-29T11:57:12.550Z,100970.97
2023-03-29T12:00:19.373Z,100967.41
2023-03-29T12:03:44.740Z,100966.44
2023-03-29T12:07:24.242Z,100956.56
2023-03-29T12:10:36.532Z,100948.81
2023-03-29T12:13:45.316Z,100946.09
2023-03-29T12:16:57.565Z,100938.34
2023-03-29T12:20:07.295Z,100944.81
2023-03-29T12:23:17.033Z,100934.75
2023-03-29T12:26:40.737Z,100924.69
2023-03-29T12:30:03.037Z,100920.22
2023-03-29T12:33:29.518Z,100913.75
2023-03-29T12:36:57.701Z,100924.28
2023-03-29T12:40:13.239Z,100911.25
2023-03-29T12:43:33.020Z,100906.16
2023-03-29T12:46:36.894Z,100904.97
2023-03-29T12:49:41.104Z,100897.31
2023-03-29T12:52:43.955Z,100901.94
2023-03-29T12:55:50.772Z,100904.84
2023-03-29T12:59:12.039Z,100886.72
2023-03-29T13:02:15.973Z,100887.87
2023-03-29T13:05:34.848Z,100899.38
2023-03-29T13:08:44.170Z,100885.69
2023-03-29T13:11:57.420Z,100882.69
2023-03-29T13:15:06.406Z,100875.56
2023-03-29T13:18:48.868Z,100876.12
2023-03-29T13:22:07.609Z,100872.78
2023-03-29T13:25:41.598Z,100859.63
2023-03-29T13:29:19.012Z,100863.50
2023-03-29T13:32:28.069Z,100858.34
2023-03-29T13:35:40.318Z,100856.63
2023-03-29T13:38:51.922Z,100865.69
2023-03-29T13:42:07.391Z,100863.94
2023-03-29T13:45:17.549Z,100878.31
2023-03-29T13:48:30.059Z,100869.78
2023-03-29T13:51:37.288Z,100862.44
2023-03-29T13:55:02.235Z,100857.66
2023-03-29T13:58:14.184Z,100862.09
2023-03-29T14:01:23.489Z,100845.28
2023-03-29T14:04:34.624Z,100852.81
2023-03-29T14:07:40.217Z,100849.09
2023-03-29T14:10:45.520Z,100848.09
2023-03-29T14:13:49.202Z,100850.22
2023-03-29T14:16:54.320Z,100851.00
2023-03-29T14:19:59.773Z,100843.75
2023-03-29T14:23:10.471Z,100844.66
2023-03-29T14:26:19.184Z,100846.41
2023-03-29T14:29:25.040Z,100837.59
2023-03-29T14:32:31.139Z,100836.75
2023-03-29T14:35:34.798Z,100835.53
2023-03-29T14:38:38.189Z,100839.75
2023-03-29T14:41:47.867Z,100839.94
2023-03-29T14:44:51.250Z,100832.00
2023-03-29T14:47:54.797Z,100833.69
2023-03-29T14:50:57.933Z,100832.66
2023-03-29T14:54:04.144Z,100832.75
2023-03-29T14:57:07.595Z,100822.28
2023-03-29T15:00:26.261Z,100832.88
2023-03-29T15:03:29.653Z,100825.47
2023-03-29T15:06:38.750Z,100826.56
2023-03-29T15:09:45.335Z,100832.38
2023-03-29T15:12:49.821Z,100828.25
2023-03-29T15:15:56.692Z,100824.44
2023-03-29T15:19:02.238Z,100813.78
2023-03-29T15:22:11.819Z,100814.56
2023-03-29T15:25:19.981Z,100815.81
2023-03-29T15:28:30.190Z,100816.44
2023-03-29T15:31:36.296Z,100806.91
2023-03-29T15:34:39.413Z,100814.28
2023-03-29T15:37:43.813Z,100811.00
2023-03-29T15:40:48.470Z,100805.53
2023-03-29T15:43:51.664Z,100810.06
2023-03-29T15:47:00.022Z,100815.00
2023-03-29T15:50:03.467Z,100803.84
2023-03-29T15:53:15.197Z,100805.59
2023-03-29T15:56:23.157Z,100807.38
2023-03-29T15:59:26.373Z,100806.19
2023-03-29T16:02:29.987Z,100805.19
2023-03-29T16:05:33.760Z,100802.31
2023-03-29T16:08:36.806Z,100805.66
2023-03-29T16:11:41.998Z,100800.13
2023-03-29T16:14:45.176Z,100812.00
2023-03-29T16:17:48.571Z,100811.31
2023-03-29T16:20:52.029Z,100819.06
2023-03-29T16:23:55.618Z,100820.19
2023-03-29T16:26:59.962Z,100815.25
2023-03-29T16:30:04.064Z,100818.16
2023-03-29T16:33:08.969Z,100814.00
2023-03-29T16:36:12.626Z,100813.63
2023-03-29T16:39:16.414Z,100820.22
2023-03-29T16:42:19.618Z,100819.41
2023-03-29T16:45:23.595Z,100819.84
2023-03-29T16:48:27.325Z,100806.59
2023-03-29T16:51:31.176Z,100812.22
2023-03-29T16:54:34.555Z,100812.06
2023-03-29T16:57:37.537Z,100819.87
2023-03-29T17:00:41.244Z,100805.34
2023-03-29T17:03:45.964Z,100811.59
2023-03-29T17:06:49.587Z,100801.69
2023-03-29T17:09:52.839Z,100803.63
2023-03-29T17:12:56.385Z,100804.53
2023-03-29T17:15:59.763Z,100806.81
2023-03-29T17:19:03.379Z,100796.47
2023-03-29T17:22:06.949Z,100796.81
2023-03-29T17:25:10.677Z,100795.66
2023-03-29T17:28:13.979Z,100802.31
2023-03-29T17:31:19.933Z,100797.75
2023-03-29T17:34:23.999Z,100800.97
2023-03-29T17:37:31.131Z,100815.72
2023-03-29T17:40:34.366Z,100808.91
2023-03-29T17:43:38.319Z,100818.47
2023-03-29T17:46:41.549Z,100824.91
2023-03-29T17:49:45.170Z,100833.87
2023-03-29T17:52:52.649Z,100829.75
2023-03-29T17:55:56.851Z,100831.03
2023-03-29T17:59:00.839Z,100829.22
2023-03-29T18:02:06.334Z,100835.06
2023-03-29T18:05:15.295Z,100845.22
2023-03-29T18:08:19.244Z,100847.34
2023-03-29T18:11:25.449Z,100845.62
2023-03-29T18:14:29.007Z,100834.00
2023-03-29T18:17:33.237Z,100833.44
2023-03-29T18:20:36.585Z,100846.47
2023-03-29T18:23:42.654Z,100838.16
2023-03-29T18:26:45.949Z,100850.72
2023-03-29T18:29:50.824Z,100847.47
2023-03-29T18:32:55.115Z,100848.62
2023-03-29T18:35:58.752Z,100847.47
2023-03-29T18:39:06.011Z,100851.16
2023-03-29T18:42:12.277Z,100853.97
2023-03-29T18:45:17.014Z,100842.94
2023-03-29T18:48:23.326Z,100851.22
2023-03-29T18:51:29.313Z,100844.31
2023-03-29T18:54:34.840Z,100848.28
2023-03-29T18:57:39.140Z,100850.34
2023-03-29T19:00:45.053Z,100858.34
2023-03-29T19:03:49.372Z,100852.53
2023-03-29T19:06:56.684Z,100857.03
2023-03-29T19:10:00.760Z,100850.50
2023-03-29T19:13:06.377Z,100846.47
2023-03-29T19:16:11.186Z,100840.44
2023-03-29T19:19:15.077Z,100846.56
2023-03-29T19:22:19.161Z,100844.38
2023-03-29T19:25:24.066Z,100837.47
2023-03-29T19:28:28.167Z,100846.84
2023-03-29T19:31:36.618Z,100838.19
2023-03-29T19:34:41.418Z,100840.50
2023-03-29T19:37:45.894Z,100839.44
2023-03-29T19:40:52.228Z,100830.34
2023-03-29T19:43:57.042Z,100823.69
2023-03-29T19:47:01.022Z,100825.06
2023-03-29T19:50:06.022Z,100827.44
2023-03-29T19:53:12.185Z,100829.66
2023-03-29T19:56:16.275Z,100820.44
2023-03-29T19:59:20.791Z,100813.97
2023-03-29T20:02:27.781Z,100825.59
2023-03-29T20:05:31.660Z,100821.66
2023-03-29T20:08:39.176Z,100814.00
2023-03-29T20:11:44.570Z,100806.00
2023-03-29T20:14:47.626Z,100806.63
2023-03-29T20:17:53.199Z,100814.09
2023-03-29T20:20:57.687Z,100805.00
2023-03-29T20:24:01.417Z,100803.88
2023-03-29T20:27:04.755Z,100803.75
2023-03-29T20:30:10.152Z,100808.09
2023-03-29T20:33:13.689Z,100805.69
2023-03-29T20:36:23.155Z,100805.69
2023-03-29T20:39:26.968Z,100795.63
2023-03-29T20:42:31.166Z,100799.19
2023-03-29T20:45:42.931Z,100792.25
2023-03-29T20:48:54.984Z,100796.16
2023-03-29T20:52:03.539Z,100792.56
2023-03-29T20:55:06.938Z,100789.03
2023-03-29T20:58:09.823Z,100783.13
2023-03-29T21:01:14.567Z,100777.91
2023-03-29T21:04:17.471Z,100778.28
2023-03-29T21:07:21.944Z,100775.22
2023-03-29T21:10:26.444Z,100773.28
2023-03-29T21:13:29.558Z,100773.63
2023-03-29T21:16:32.484Z,100777.31
2023-03-29T21:19:38.339Z,100775.97
2023-03-29T21:22:43.338Z,100768.47
2023-03-29T21:25:46.402Z,100764.00
2023-03-29T21:28:49.285Z,100776.53
2023-03-29T21:31:52.375Z,100766.84
2023-03-29T21:34:55.207Z,100757.09
2023-03-29T21:37:58.282Z,100762.06
2023-03-29T21:41:02.662Z,100755.37
2023-03-29T21:44:06.276Z,100761.25
2023-03-29T21:47:09.338Z,100768.56
2023-03-29T21:50:12.698Z,100769.03
2023-03-29T21:53:16.295Z,100777.81
2023-03-29T21:56:19.364Z,100780.13
2023-03-29T21:59:22.055Z,100778.50
2023-03-29T22:02:25.376Z,100772.72
2023-03-29T22:05:28.685Z,100779.81
2023-03-29T22:08:31.774Z,100773.59
2023-03-29T22:11:34.955Z,100763.78
2023-03-29T22:14:37.851Z,100774.53
2023-03-29T22:17:43.001Z,100767.94
2023-03-29T22:20:46.929Z,100778.63
2023-03-29T22:23:52.788Z,100776.66
2023-03-29T22:26:55.576Z,100775.06
2023-03-29T22:29:59.012Z,100775.19
2023-03-29T22:33:01.897Z,100764.03
2023-03-29T22:36:27.141Z,100768.66
2023-03-29T22:39:30.249Z,100775.87
2023-03-29T22:42:33.379Z,100772.06
2023-03-29T22:45:36.574Z,100780.25
2023-03-29T22:48:40.260Z,100783.75
2023-03-29T22:51:43.133Z,100773.63
2023-03-29T22:54:46.494Z,100786.97
2023-03-29T22:57:49.402Z,100789.37
2023-03-29T23:00:53.415Z,100770.75
2023-03-29T23:03:56.491Z,100775.84
2023-03-29T23:07:00.468Z,100773.53
2023-03-29T23:10:07.854Z,100776.19
2023-03-29T23:13:13.079Z,100780.13
2023-03-29T23:16:15.981Z,100781.84
2023-03-29T23:19:19.438Z,100774.94
2023-03-29T23:22:22.883Z,100766.31
2023-03-29T23:25:27.777Z,100764.34
2023-03-29T23:28:31.690Z,100758.87
2023-03-29T23:31:37.953Z,100758.34
2023-03-29T23:34:40.980Z,100752.50
2023-03-29T23:37:45.188Z,100748.13
2023-03-29T23:40:58.969Z,100749.44
2023-03-29T23:44:03.833Z,100751.22
2023-03-29T23:47:07.445Z,100743.19
2023-03-29T23:50:17.004Z,100739.44
2023-03-29T23:53:21.071Z,100738.09
2023-03-29T23:56:24.525Z,100737.25
2023-03-29T23:59:30.838Z,100741.59
